Arapahoe, NE

1:02 AM CDT on July 28, 2015 (GMT -0500)
Arapahoe Municipal Airport | | Change Station
CLOSE
Current Station
Personal Weather Station
Location: Arapahoe, NE
Elevation: 2257 ft
Nearby Weather Stations

Elev 2257 ft 40.34 °N, 99.90 °W | Updated 3 minutes ago

Clear
Clear
80.6 °F
Feels Like 85 °F
N
10.4
Wind Variable Wind from ESE

Today
High -- | Low -- °F
--% Chance of Precip.
Yesterday
High -- | Low -- °F
Precip. -- in
6:33 AM 8:58 PM
Waxing Gibbous, 87% visible
Pressure 29.77 in
Visibility 10.0 miles
Clouds Clear
Heat Index 85 °F
Dew Point 74 °F
Humidity 79%
Rainfall 0.00 in
Snow Depth Not available.
UV 0 out of 12
Pollen 6.40 out of 12
Air Quality Not available.
Flu Activity Not available.
METAR KHDE 280555Z AUTO 17015G20KT 10SM CLR 27/19 A2977 RMK AO2 T02660188 10308 20255 403270198

More Conditions Fewer Conditions

Pressure 29.77 in
Visibility 10.0 miles
Clouds Clear
Heat Index 85 °F
Dew Point 74 °F
Humidity 79%
Rainfall 0.00 in
Snow Depth Not available.
UV 0 out of 12
Pollen 6.40 out of 12
Air Quality Not available.
Flu Activity Not available.
METAR KHDE 280555Z AUTO 17015G20KT 10SM CLR 27/19 A2977 RMK AO2 T02660188 10308 20255 403270198

More Conditions Fewer Conditions

10-Day Weather Forecast

×

Almanac

Astronomy

Jul. 28, 2015 Rise Set
Actual Time
Civil Twilight
Nautical Twilight
Astronomical Twilight
Moon
Length of Visible Light
Length of Day
Tomorrow will be .
, % of the Moon is Illuminated

Today's Extremes

State Highs State Lows

Community

WunderPhotos

Upload Photos

1,841,796 photos uploaded!

WunderBlogs® & News

Nearby

Air Quality

  Air Quality AQ Index Pollutant
Not available.

Snow Depth

Station Depth Elevation

Earthquake Activity

City Distance Mag. Time & Date
Minimum magnitude displayed is 2.5.

Coastal Water Temperatures

Place Temperature

Stations

Nearby Weather Stations

Station Location Temp. Windchill Dew Point Humidity Wind Precip. Elev Updated Type